ěÝzenÝ letovÚho provozu ╚eskÚ republiky
Letiste: LKNA Aktualizace: 13.06.2021 23:27:24  UTC
 METAR LKNA 13.06. 23:30 ...
METAR LKNA 132330Z 29008KT 9999 SCT044 08/05 Q1025 RMK BLU=
 TAF LKNA 13.06. 17:00 ...
TAF LKNA 131700Z 1318/1418 32015KT CAVOK      BECMG 1320/1322 31008KT      BECMG 1410/1412 01010KT=